EW3700 Weather Reports


Display with metric or nautical units.
time (UTC)temp
F
wind
direction
speed
MPH
gust
MPH
rain 1hr
in
rain 24hr
in
rain mn
in
humidity
%
barometer
mb
20240420124021 31 315 5.0 11.0 0.00 0.00 0.00 76 1023.6
20240420123021 31 315 5.0 12.0 0.00 0.00 0.00 76 1023.5
20240420122040 31 315 7.0 16.0 0.00 0.00 0.00 75 1023.4
20240420121018 31 315 6.0 12.0 0.00 0.00 0.00 75 1023.2
20240420120021 31 315 6.0 10.0 0.00 0.00 0.00 74 1023.2
20240420115040 31 315 3.0 8.0 0.00 0.00 0.00 72 1023.0
20240420114021 31 0 4.0 13.0 0.00 0.00 0.00 72 1022.8
20240420113021 31 293 4.0 8.0 0.00 0.00 0.00 71 1022.8
20240420112018 31 293 3.0 8.0 0.00 0.00 0.00 71 1022.7
20240420111017 31 293 4.0 11.0 0.00 0.00 0.00 70 1022.6
20240420110017 31 315 4.0 12.0 0.00 0.00 0.00 70 1022.5
20240420105019 31 338 3.0 8.0 0.00 0.00 0.00 71 1022.5
20240420104038 31 315 6.0 14.0 0.00 0.00 0.00 71 1022.4
20240420103018 31 293 5.0 16.0 0.00 0.00 0.00 72 1022.4
20240420102017 31 315 4.0 9.0 0.00 0.00 0.00 73 1022.3
20240420101017 31 270 5.0 12.0 0.00 0.00 0.00 75 1022.3
20240420100017 31 293 4.0 9.0 0.00 0.00 0.00 76 1022.3
20240420095017 31 293 5.0 13.0 0.00 0.00 0.00 77 1022.2
20240420094037 31 315 6.0 14.0 0.00 0.00 0.00 78 1022.1
20240420093018 31 315 5.0 13.0 0.00 0.00 0.00 81 1022.0
20240420092017 31 315 4.0 10.0 0.00 0.00 0.00 82 1022.0
20240420091017 31 315 3.0 8.0 0.00 0.00 0.00 81 1021.8
20240420090037 32 315 3.0 8.0 0.00 0.00 0.00 79 1021.8
20240420085017 33 293 3.0 9.0 0.00 0.00 0.00 76 1021.8
20240420084037 33 293 3.0 7.0 0.00 0.00 0.00 75 1021.5
20240420083017 33 293 3.0 10.0 0.00 0.00 0.00 75 1021.4
20240420082017 33 315 3.0 10.0 0.00 0.00 0.00 75 1021.3
20240420081017 33 270 3.0 8.0 0.00 0.00 0.00 75 1021.2
20240420080037 33 270 4.0 9.0 0.00 0.00 0.00 74 1021.2
20240420075017 33 270 3.0 8.0 0.00 0.00 0.00 74 1021.2
20240420074017 33 270 5.0 13.0 0.00 0.00 0.00 73 1021.2
20240420073017 33 270 4.0 12.0 0.00 0.00 0.00 73 1021.2
20240420072017 33 293 5.0 16.0 0.00 0.00 0.00 72 1021.2
20240420071017 33 270 5.0 13.0 0.00 0.00 0.00 71 1021.2
20240420070019 33 293 6.0 16.0 0.00 0.00 0.00 70 1021.2
20240420065037 34 338 6.0 15.0 0.00 0.00 0.00 69 1021.1
20240420064017 34 270 5.0 13.0 0.00 0.00 0.00 68 1021.2
20240420063037 34 270 5.0 10.0 0.00 0.00 0.00 68 1021.2
20240420062037 34 293 5.0 12.0 0.00 0.00 0.00 67 1021.2
20240420061016 34 315 4.0 8.0 0.00 0.00 0.00 67 1021.1
20240420060037 34 270 4.0 10.0 0.00 0.00 0.00 66 1021.1
20240420055017 34 270 3.0 10.0 0.00 0.00 0.00 66 1021.2
20240420054017 34 270 3.0 12.0 0.00 0.00 0.00 65 1021.1
20240420053017 34 270 6.0 14.0 0.00 0.00 0.00 65 1021.1
20240420052017 34 293 6.0 13.0 0.00 0.00 0.00 64 1021.0
20240420051037 35 270 5.0 11.0 0.00 0.00 0.00 64 1020.9
20240420050016 35 270 7.0 20.0 0.00 0.00 0.00 63 1020.8
20240420045022 35 270 5.0 12.0 0.00 0.00 0.00 63 1020.7
20240420044018 35 270 5.0 12.0 0.00 0.00 0.00 62 1020.7
20240420043021 35 270 5.0 14.0 0.00 0.00 0.00 62 1020.7
20240420042018 35 270 6.0 18.0 0.00 0.00 0.00 62 1020.6
20240420041019 35 270 4.0 8.0 0.00 0.00 0.00 62 1020.6
20240420040021 35 270 3.0 9.0 0.00 0.00 0.00 62 1020.5
20240420035038 35 270 5.0 14.0 0.00 0.00 0.00 62 1020.5
20240420034038 35 270 4.0 12.0 0.00 0.00 0.00 62 1020.4
20240420033018 35 293 4.0 11.0 0.00 0.00 0.00 62 1020.5
20240420032018 35 293 5.0 14.0 0.00 0.00 0.00 62 1020.5
20240420031018 35 270 4.0 11.0 0.00 0.00 0.00 63 1020.5
20240420030018 35 293 3.0 9.0 0.00 0.00 0.00 63 1020.6
20240420025018 35 270 6.0 13.0 0.00 0.00 0.00 62 1020.5
20240420024018 35 270 4.0 13.0 0.00 0.00 0.00 62 1020.4
20240420023018 35 270 7.0 14.0 0.00 0.00 0.00 61 1020.3
20240420022038 35 270 4.0 11.0 0.00 0.00 0.00 60 1020.2
20240420021018 35 270 6.0 12.0 0.00 0.00 0.00 60 1020.0
20240420020017 35 270 6.0 13.0 0.00 0.00 0.00 59 1019.9
20240420015018 36 293 4.0 10.0 0.00 0.00 0.00 60 1019.8
20240420014017 36 270 6.0 15.0 0.00 0.00 0.00 60 1019.6
20240420013017 36 270 3.0 16.0 0.00 0.00 0.00 61 1019.6
20240420012017 36 270 3.0 8.0 0.00 0.00 0.00 61 1019.5
20240420011018 36 270 3.0 13.0 0.00 0.00 0.00 60 1019.4
20240420010018 36 270 2.0 10.0 0.00 0.00 0.00 59 1019.4
20240420005018 36 270 2.0 7.0 0.00 0.00 0.00 58 1019.4
20240420004037 36 270 5.0 15.0 0.00 0.00 0.00 58 1019.3
20240420003037 36 293 4.0 8.0 0.00 0.00 0.00 60 1019.2
20240420002017 35 270 4.0 11.0 0.00 0.00 0.00 61 1019.3
20240420001017 36 270 5.0 14.0 0.00 0.00 0.00 58 1019.5
20240420000018 36 270 2.0 10.0 0.00 0.00 0.00 58 1019.4
20240419235017 36 270 3.0 11.0 0.00 0.00 0.00 57 1019.4
20240419234017 36 293 4.0 8.0 0.00 0.00 0.00 57 1019.4
20240419233018 36 270 7.0 16.0 0.00 0.00 0.00 57 1019.3
20240419232037 36 270 5.0 15.0 0.00 0.00 0.00 56 1019.4
20240419231017 36 315 6.0 22.0 0.00 0.00 0.00 56 1019.3
20240419230037 36 315 5.0 15.0 0.00 0.00 0.00 57 1019.2
20240419225017 36 293 6.0 16.0 0.00 0.00 0.00 56 1019.1
20240419224017 36 270 7.0 15.0 0.00 0.00 0.00 56 1019.1
20240419223017 36 270 7.0 16.0 0.00 0.00 0.00 55 1019.1
20240419222017 36 270 5.0 13.0 0.00 0.00 0.00 55 1018.9
20240419221017 36 270 6.0 16.0 0.00 0.00 0.00 54 1018.9
20240419220017 37 270 3.0 10.0 0.00 0.00 0.00 55 1018.8
20240419215017 37 270 4.0 10.0 0.00 0.00 0.00 54 1018.8
20240419214017 36 270 7.0 16.0 0.00 0.00 0.00 53 1018.6
20240419213017 37 270 5.0 12.0 0.00 0.00 0.00 53 1018.6
20240419212017 37 270 7.0 20.0 0.00 0.00 0.00 52 1018.7
20240419211019 36 270 6.0 17.0 0.00 0.00 0.00 53 1018.6
20240419210017 36 270 6.0 17.0 0.00 0.00 0.00 53 1018.8
20240419205017 36 270 5.0 12.0 0.00 0.00 0.00 54 1018.8
20240419204037 36 293 7.0 19.0 0.00 0.00 0.00 54 1018.9
20240419203017 36 270 8.0 18.0 0.00 0.00 0.00 54 1019.1
20240419202017 36 270 8.0 19.0 0.00 0.00 0.00 53 1019.1
20240419201017 36 293 8.0 19.0 0.00 0.00 0.00 54 1019.1
20240419200017 36 270 8.0 19.0 0.00 0.00 0.00 54 1019.0
20240419195017 36 270 6.0 15.0 0.00 0.00 0.00 53 1019.1
20240419194017 36 270 6.0 17.0 0.00 0.00 0.00 55 1019.0
20240419193017 35 270 8.0 18.0 0.00 0.00 0.00 55 1019.1
20240419192016 36 293 6.0 21.0 0.00 0.00 0.00 54 1019.2
20240419191017 36 293 5.0 15.0 0.00 0.00 0.00 56 1018.9
20240419190017 36 270 9.0 17.0 0.00 0.00 0.00 54 1018.8
20240419185017 36 270 7.0 17.0 0.00 0.00 0.00 53 1018.8
20240419184017 36 293 6.0 15.0 0.00 0.00 0.00 54 1018.7
20240419183017 36 270 7.0 15.0 0.00 0.00 0.00 50 1018.5
20240419182016 37 270 5.0 16.0 0.00 0.00 0.00 51 1018.4
20240419181016 37 270 8.0 18.0 0.00 0.00 0.00 52 1018.3
20240419180019 37 270 6.0 15.0 0.00 0.00 0.00 53 1018.3
20240419175017 36 293 6.0 18.0 0.00 0.00 0.00 55 1018.3
20240419174037 35 270 9.0 21.0 0.00 0.00 0.00 55 1018.1
20240419173017 35 315 6.0 19.0 0.00 0.00 0.00 62 1018.3
20240419172016 35 270 6.0 19.0 0.00 0.00 0.00 65 1018.4
20240419171016 35 270 5.0 15.0 0.00 0.00 0.00 64 1018.3
20240419170016 35 270 7.0 18.0 0.00 0.00 0.00 60 1018.3
20240419165057 35 270 8.0 24.0 0.00 0.00 0.00 58 1018.2
20240419164016 35 270 6.0 14.0 0.00 0.00 0.00 60 1018.2
20240419163016 35 270 7.0 16.0 0.00 0.00 0.00 63 1018.2
20240419162017 34 293 8.0 19.0 0.00 0.00 0.00 66 1018.4
20240419161016 35 270 6.0 18.0 0.00 0.00 0.00 66 1018.1
20240419160017 35 270 4.0 12.0 0.00 0.00 0.00 67 1018.2
20240419155017 34 270 5.0 13.0 0.00 0.00 0.00 68 1018.1
20240419154016 34 270 7.0 19.0 0.00 0.00 0.00 68 1018.1
20240419153016 34 270 4.0 11.0 0.00 0.00 0.00 71 1018.0
20240419152017 34 270 3.0 11.0 0.00 0.00 0.00 72 1018.0
20240419151016 34 270 4.0 13.0 0.00 0.00 0.00 70 1017.8
20240419150016 34 270 4.0 17.0 0.00 0.00 0.00 69 1017.7
20240419145016 35 270 5.0 13.0 0.00 0.00 0.00 69 1017.6
20240419144016 35 270 5.0 14.0 0.00 0.00 0.00 70 1017.4
20240419143036 35 270 4.0 14.0 0.00 0.00 0.00 70 1017.5
20240419142016 35 270 6.0 14.0 0.00 0.00 0.00 65 1017.5
20240419141018 35 270 6.0 17.0 0.00 0.00 0.00 62 1017.5
20240419140018 36 270 6.0 18.0 0.00 0.00 0.00 62 1017.6
20240419135018 36 270 7.0 18.0 0.00 0.00 0.00 62 1017.4
20240419134018 36 270 5.0 14.0 0.00 0.00 0.00 67 1017.4
20240419133018 36 270 4.0 14.0 0.00 0.00 0.00 69 1017.4
20240419132018 36 293 4.0 12.0 0.00 0.00 0.00 70 1017.5
20240419131018 36 270 5.0 10.0 0.00 0.00 0.00 69 1017.4
20240419130018 36 270 4.0 13.0 0.00 0.00 0.00 69 1017.2
20240419125018 36 270 4.0 13.0 0.00 0.00 0.00 70 1017.1